Details for UPS at ZSSS




Go Back


Latest METAR
Local Time

ZSSS 232330Z 12004MPS CAVOK 09/04 Q1022 NOSIG

24/02/2018, 07:57:36

Description
Results
UPS Logo
Number of Pilots based at ZSSS
0 Pilots Based here
Number of UPS Flights Departed from ZSSS
0 Flights Departed
Number of UPS Flights Arrived at ZSSS
0 Flights Arrived
Number of UPS Schedules Departing from ZSSS
0 Schedules
Number of UPS Schedules Arriving at ZSSS
0 Schedules
Number of UPS Schedules Departing from ZSSS availible today
0 Schedules Today
Number of UPS Schedules Arriving at ZSSS availible today
0 Schedules Today
Average Landing Rate at ZSSS
0 fpm
UPS Average Landing Rate at ZSSS
0 fpm
Total Fuel Purchased at ZSSS by UPS
0.00 kgs / 0.00 lbs

Pilots Based at ZSSS


Pilot ID
Pilot Name
Pilot Rank
No. of Flights
No. of Flying Hours
There are no pilots assigned to this hub!   Will you be the first?
Content